createdAt,value
2023-01-13T00:01:10.171Z,94.80
2023-01-13T00:03:39.871Z,94.22
2023-01-13T00:06:09.049Z,94.26
2023-01-13T00:08:37.210Z,93.59
2023-01-13T00:11:05.286Z,93.58
2023-01-13T00:13:35.416Z,94.12
2023-01-13T00:16:06.616Z,93.22
2023-01-13T00:18:36.984Z,93.32
2023-01-13T00:21:08.836Z,93.02
2023-01-13T00:23:37.225Z,92.57
2023-01-13T00:26:08.586Z,92.97
2023-01-13T00:28:37.336Z,92.87
2023-01-13T00:31:09.596Z,92.23
2023-01-13T00:33:38.024Z,92.12
2023-01-13T00:36:09.878Z,92.57
2023-01-13T00:38:39.068Z,92.42
2023-01-13T00:41:09.339Z,92.04
2023-01-13T00:43:54.987Z,92.86
2023-01-13T00:46:23.521Z,92.37
2023-01-13T00:48:51.618Z,91.65
2023-01-13T00:51:22.725Z,91.63
2023-01-13T00:53:52.399Z,92.16
2023-01-13T00:56:38.410Z,92.31
2023-01-13T00:59:07.680Z,91.94
2023-01-13T01:01:36.061Z,92.25
2023-01-13T01:04:04.134Z,91.92
2023-01-13T01:06:33.630Z,91.77
2023-01-13T01:09:01.942Z,91.75
2023-01-13T01:11:31.718Z,91.87
2023-01-13T01:14:02.128Z,91.99
2023-01-13T01:16:31.947Z,91.96
2023-01-13T01:19:01.456Z,91.85
2023-01-13T01:21:30.337Z,91.79
2023-01-13T01:24:01.936Z,91.74
2023-01-13T01:26:31.594Z,91.75
2023-01-13T01:29:02.209Z,91.16
2023-01-13T01:31:32.912Z,90.46
2023-01-13T01:34:01.761Z,90.39
2023-01-13T01:36:30.565Z,90.70
2023-01-13T01:39:00.941Z,90.48
2023-01-13T01:41:31.672Z,90.43
2023-01-13T01:44:00.447Z,90.20
2023-01-13T01:46:30.767Z,90.52
2023-01-13T01:49:04.633Z,91.02
2023-01-13T01:51:36.507Z,91.79
2023-01-13T01:54:11.482Z,91.74
2023-01-13T01:56:42.895Z,91.16
2023-01-13T01:59:11.617Z,91.34
2023-01-13T02:01:41.776Z,91.76
2023-01-13T02:04:15.421Z,92.07
2023-01-13T02:06:45.541Z,92.08
2023-01-13T02:09:16.083Z,92.39
2023-01-13T02:12:01.591Z,92.68
2023-01-13T02:14:31.782Z,93.15
2023-01-13T02:17:15.819Z,92.76
2023-01-13T02:20:25.455Z,92.75
2023-01-13T02:23:52.280Z,92.17
2023-01-13T02:26:50.083Z,92.08
2023-01-13T02:29:56.833Z,92.41
2023-01-13T02:32:31.191Z,92.90
2023-01-13T02:35:07.945Z,93.19
2023-01-13T02:37:40.467Z,93.50
2023-01-13T02:40:13.561Z,93.39
2023-01-13T02:43:06.035Z,93.87
2023-01-13T02:45:40.881Z,94.53
2023-01-13T02:48:12.174Z,94.69
2023-01-13T02:50:45.544Z,94.30
2023-01-13T02:53:19.501Z,94.69
2023-01-13T02:56:07.281Z,94.71
2023-01-13T02:58:37.550Z,95.00
2023-01-13T03:01:10.704Z,94.95
2023-01-13T03:03:38.872Z,94.92
2023-01-13T03:06:26.015Z,94.67
2023-01-13T03:09:01.119Z,94.78
2023-01-13T03:11:36.243Z,94.73
2023-01-13T03:14:19.798Z,95.17
2023-01-13T03:17:00.714Z,95.44
2023-01-13T03:19:38.445Z,95.61
2023-01-13T03:22:15.706Z,96.16
2023-01-13T03:24:48.144Z,95.92
2023-01-13T03:27:21.802Z,96.11
2023-01-13T03:29:56.534Z,96.10
2023-01-13T03:32:29.400Z,96.57
2023-01-13T03:35:03.733Z,96.27
2023-01-13T03:37:36.321Z,95.93
2023-01-13T03:40:10.011Z,96.33
2023-01-13T03:42:42.068Z,96.04
2023-01-13T03:45:15.073Z,96.10
2023-01-13T03:47:52.391Z,96.34
2023-01-13T03:50:23.838Z,96.13
2023-01-13T03:52:57.396Z,95.80
2023-01-13T03:55:30.691Z,95.96
2023-01-13T03:58:03.244Z,96.20
2023-01-13T04:00:38.779Z,96.23
2023-01-13T04:03:11.315Z,96.56
2023-01-13T04:05:43.413Z,95.73
2023-01-13T04:08:18.042Z,95.84
2023-01-13T04:10:54.612Z,95.95
2023-01-13T04:13:25.937Z,95.77
2023-01-13T04:15:54.145Z,95.86
2023-01-13T04:18:26.316Z,95.74
2023-01-13T04:20:56.251Z,95.88
2023-01-13T04:23:32.829Z,96.04
2023-01-13T04:26:01.569Z,96.79
2023-01-13T04:28:29.761Z,96.62
2023-01-13T04:30:57.937Z,96.55
2023-01-13T04:33:28.540Z,97.04
2023-01-13T04:35:56.657Z,96.92
2023-01-13T04:38:24.876Z,96.99
2023-01-13T04:40:53.063Z,96.85
2023-01-13T04:43:21.128Z,97.28
2023-01-13T04:45:49.263Z,96.98
2023-01-13T04:51:04.448Z,97.02
2023-01-13T04:53:32.546Z,96.97
2023-01-13T04:56:00.874Z,96.95
2023-01-13T04:58:28.999Z,97.57
2023-01-13T05:00:57.025Z,97.41
2023-01-13T05:03:26.802Z,97.53
2023-01-13T05:05:54.895Z,97.73
2023-01-13T05:08:24.411Z,97.99
2023-01-13T05:10:52.499Z,98.03
2023-01-13T05:13:38.368Z,98.36
2023-01-13T05:16:24.542Z,98.35
2023-01-13T05:18:52.725Z,98.98
2023-01-13T05:21:38.203Z,98.66
2023-01-13T05:24:27.609Z,97.48
2023-01-13T05:26:55.701Z,97.99
2023-01-13T05:29:23.811Z,97.42
2023-01-13T05:31:51.839Z,97.10
2023-01-13T05:34:20.082Z,96.25
2023-01-13T05:36:48.220Z,96.17
2023-01-13T05:39:17.811Z,96.27
2023-01-13T05:42:03.592Z,96.22
2023-01-13T05:44:31.743Z,95.92
2023-01-13T05:47:00.056Z,95.70
2023-01-13T05:49:28.259Z,96.09
2023-01-13T05:51:56.247Z,95.88
2023-01-13T05:54:25.785Z,95.61
2023-01-13T05:56:53.961Z,95.52
2023-01-13T05:59:22.113Z,95.66
2023-01-13T06:01:50.719Z,95.14
2023-01-13T06:04:18.825Z,95.81
2023-01-13T06:06:48.572Z,94.26
2023-01-13T06:09:16.970Z,94.73
2023-01-13T06:11:46.590Z,94.63
2023-01-13T06:14:15.004Z,94.11
2023-01-13T06:16:43.263Z,94.12
2023-01-13T06:19:13.213Z,94.47
2023-01-13T06:21:41.788Z,94.53
2023-01-13T06:24:10.625Z,94.91
2023-01-13T06:26:41.570Z,94.55
2023-01-13T06:29:14.135Z,94.54
2023-01-13T06:31:42.517Z,94.54
2023-01-13T06:34:14.638Z,94.87
2023-01-13T06:36:47.030Z,95.11
2023-01-13T06:39:19.315Z,94.59
2023-01-13T06:42:11.202Z,94.72
2023-01-13T06:44:40.960Z,94.67
2023-01-13T06:47:09.830Z,94.68
2023-01-13T06:49:37.910Z,93.94
2023-01-13T06:52:06.584Z,93.77
2023-01-13T06:54:35.591Z,93.59
2023-01-13T06:57:04.154Z,93.53
2023-01-13T06:59:34.475Z,93.29
2023-01-13T07:02:04.193Z,93.94
2023-01-13T07:04:32.295Z,93.54
2023-01-13T07:07:00.571Z,94.10
2023-01-13T07:09:28.670Z,94.09
2023-01-13T07:11:56.659Z,94.23
2023-01-13T07:14:42.196Z,94.31
2023-01-13T07:17:11.837Z,94.49
2023-01-13T07:19:39.875Z,94.43
2023-01-13T07:22:08.126Z,94.29
2023-01-13T07:24:36.186Z,94.56
2023-01-13T07:27:04.395Z,95.11
2023-01-13T07:29:32.421Z,96.06
2023-01-13T07:32:01.468Z,97.07
2023-01-13T07:34:30.988Z,96.94
2023-01-13T07:36:59.097Z,96.91
2023-01-13T07:39:27.215Z,96.68
2023-01-13T07:42:13.028Z,96.87
2023-01-13T07:44:41.082Z,96.23
2023-01-13T07:47:11.266Z,94.69
2023-01-13T07:49:40.776Z,94.55
2023-01-13T07:52:09.096Z,94.86
2023-01-13T07:54:40.897Z,95.51
2023-01-13T07:57:09.241Z,97.04
2023-01-13T07:59:37.616Z,97.44
2023-01-13T08:02:05.877Z,98.77
2023-01-13T08:04:34.942Z,100.00
2023-01-13T08:07:05.641Z,100.00
2023-01-13T08:09:34.149Z,100.00
2023-01-13T08:12:15.929Z,100.00
2023-01-13T08:14:46.540Z,100.00
2023-01-13T08:17:14.691Z,100.00
2023-01-13T08:19:42.831Z,100.00
2023-01-13T08:22:12.275Z,100.00
2023-01-13T08:24:40.384Z,100.00
2023-01-13T08:27:08.632Z,100.00
2023-01-13T08:29:36.723Z,100.00
2023-01-13T08:32:05.172Z,100.00
2023-01-13T08:34:33.391Z,100.00
2023-01-13T08:37:01.592Z,100.00
2023-01-13T08:39:31.150Z,100.00
2023-01-13T08:41:59.565Z,100.00
2023-01-13T08:44:29.002Z,100.00
2023-01-13T08:46:57.414Z,100.00
2023-01-13T08:49:26.281Z,100.00
2023-01-13T08:51:54.985Z,100.00
2023-01-13T08:54:23.116Z,100.00
2023-01-13T08:56:52.763Z,100.00
2023-01-13T08:59:21.428Z,100.00
2023-01-13T09:01:49.596Z,100.00
2023-01-13T09:04:19.890Z,100.00
2023-01-13T09:06:49.359Z,100.00
2023-01-13T09:09:17.910Z,100.00
2023-01-13T09:12:05.850Z,100.00
2023-01-13T09:14:38.442Z,100.00
2023-01-13T09:17:07.610Z,100.00
2023-01-13T09:19:36.231Z,100.00
2023-01-13T09:22:04.595Z,100.00
2023-01-13T09:24:33.004Z,100.00
2023-01-13T09:27:01.322Z,100.00
2023-01-13T09:29:29.748Z,100.00
2023-01-13T09:31:59.601Z,100.00
2023-01-13T09:34:45.211Z,100.00
2023-01-13T09:37:13.426Z,100.00
2023-01-13T09:39:41.585Z,100.00
2023-01-13T09:42:37.854Z,100.00
2023-01-13T09:45:10.115Z,100.00
2023-01-13T09:47:47.421Z,100.00
2023-01-13T09:50:30.764Z,100.00
2023-01-13T09:53:00.780Z,100.00
2023-01-13T09:55:36.758Z,100.00
2023-01-13T09:58:12.938Z,100.00
2023-01-13T10:00:47.242Z,100.00
2023-01-13T10:03:26.617Z,100.00
2023-01-13T10:06:02.170Z,100.00
2023-01-13T10:08:34.747Z,100.00
2023-01-13T10:11:29.977Z,100.00
2023-01-13T10:13:59.985Z,98.59
2023-01-13T10:16:36.801Z,97.19
2023-01-13T10:19:13.134Z,96.54
2023-01-13T10:22:09.882Z,96.93
2023-01-13T10:24:59.821Z,93.72
2023-01-13T10:27:34.645Z,92.84
2023-01-13T10:30:13.057Z,93.55
2023-01-13T10:32:44.901Z,95.26
2023-01-13T10:35:14.540Z,94.82
2023-01-13T10:37:57.735Z,94.07
2023-01-13T10:40:26.772Z,93.94
2023-01-13T10:43:07.106Z,92.87
2023-01-13T10:45:35.331Z,93.86
2023-01-13T10:48:14.115Z,92.19
2023-01-13T10:50:44.292Z,91.50
2023-01-13T10:53:25.368Z,88.51
2023-01-13T10:56:01.789Z,87.49
2023-01-13T10:58:30.447Z,86.32
2023-01-13T11:01:03.408Z,86.69
2023-01-13T11:03:41.692Z,89.92
2023-01-13T11:06:21.158Z,86.83
2023-01-13T11:08:51.409Z,87.87
2023-01-13T11:11:44.770Z,87.34
2023-01-13T11:14:43.198Z,86.08
2023-01-13T11:17:30.039Z,86.34
2023-01-13T11:20:06.796Z,90.34
2023-01-13T11:22:40.989Z,91.00
2023-01-13T11:25:15.584Z,88.27
2023-01-13T11:27:47.706Z,86.32
2023-01-13T11:30:26.265Z,86.36
2023-01-13T11:33:16.310Z,86.94
2023-01-13T11:35:49.936Z,87.94
2023-01-13T11:38:29.438Z,88.92
2023-01-13T11:41:01.889Z,88.64
2023-01-13T11:43:35.738Z,90.21
2023-01-13T11:46:04.217Z,89.29
2023-01-13T11:48:37.198Z,89.27
2023-01-13T11:51:11.670Z,89.07
2023-01-13T11:53:55.192Z,89.34
2023-01-13T11:56:44.221Z,88.87
2023-01-13T11:59:44.671Z,88.23
2023-01-13T12:02:28.925Z,86.25
2023-01-13T12:05:10.201Z,86.70
2023-01-13T12:07:45.235Z,86.99
2023-01-13T12:10:26.115Z,86.78
2023-01-13T12:13:04.925Z,83.48
2023-01-13T12:15:50.737Z,84.96
2023-01-13T12:18:34.242Z,84.59
2023-01-13T12:21:16.059Z,83.93
2023-01-13T12:23:52.053Z,83.17
2023-01-13T12:26:21.625Z,84.63
2023-01-13T12:28:54.695Z,84.79
2023-01-13T12:31:25.018Z,86.90
2023-01-13T12:34:09.019Z,90.19
2023-01-13T12:36:53.944Z,89.34
2023-01-13T12:39:31.066Z,89.39
2023-01-13T12:42:25.675Z,89.18
2023-01-13T12:45:22.560Z,90.83
2023-01-13T12:47:50.989Z,91.20
2023-01-13T12:50:42.014Z,87.35
2023-01-13T12:53:34.940Z,86.50
2023-01-13T12:56:36.204Z,87.43
2023-01-13T12:59:37.086Z,88.54
2023-01-13T13:02:27.162Z,88.98
2023-01-13T13:04:57.321Z,87.65
2023-01-13T13:07:35.197Z,87.36
2023-01-13T13:10:13.433Z,88.64
2023-01-13T13:13:16.624Z,87.43
2023-01-13T13:15:47.411Z,85.67
2023-01-13T13:18:27.250Z,86.05
2023-01-13T13:21:04.295Z,85.96
2023-01-13T13:24:05.329Z,85.59
2023-01-13T13:26:46.891Z,85.91
2023-01-13T13:29:36.263Z,87.64
2023-01-13T13:32:26.255Z,87.93
2023-01-13T13:35:08.879Z,88.19
2023-01-13T13:38:10.215Z,89.35
2023-01-13T13:40:59.762Z,89.46
2023-01-13T13:43:46.683Z,88.87
2023-01-13T13:46:43.285Z,88.96
2023-01-13T13:49:13.444Z,89.40
2023-01-13T13:51:46.505Z,89.66
2023-01-13T13:54:18.134Z,90.90
2023-01-13T13:56:48.824Z,90.20
2023-01-13T13:59:21.187Z,89.47
2023-01-13T14:02:00.823Z,90.30
2023-01-13T14:04:31.991Z,89.91
2023-01-13T14:07:01.943Z,90.05
2023-01-13T14:09:40.122Z,89.67
2023-01-13T14:12:17.916Z,90.72
2023-01-13T14:14:47.387Z,90.27
2023-01-13T14:17:25.174Z,89.37
2023-01-13T14:20:05.005Z,88.54
2023-01-13T14:22:33.624Z,89.04
2023-01-13T14:25:02.128Z,89.36
2023-01-13T14:27:31.902Z,90.01
2023-01-13T14:30:01.567Z,90.70
2023-01-13T14:32:38.644Z,91.92
2023-01-13T14:35:09.211Z,91.41
2023-01-13T14:37:39.773Z,92.55
2023-01-13T14:40:28.655Z,91.91
2023-01-13T14:43:00.266Z,92.92
2023-01-13T14:45:29.474Z,97.18
2023-01-13T14:47:59.959Z,99.81
2023-01-13T14:50:34.003Z,100.00
2023-01-13T14:53:05.025Z,100.00
2023-01-13T14:55:36.497Z,100.00
2023-01-13T14:58:28.312Z,100.00
2023-01-13T15:01:28.932Z,100.00
2023-01-13T15:04:16.220Z,100.00
2023-01-13T15:06:50.787Z,100.00
2023-01-13T15:09:26.252Z,100.00
2023-01-13T15:11:56.357Z,100.00
2023-01-13T15:14:30.509Z,100.00
2023-01-13T15:16:58.736Z,100.00
2023-01-13T15:19:26.818Z,100.00
2023-01-13T15:21:56.350Z,100.00
2023-01-13T15:24:24.450Z,100.00
2023-01-13T15:26:52.681Z,100.00
2023-01-13T15:29:22.021Z,100.00
2023-01-13T15:31:50.987Z,100.00
2023-01-13T15:34:19.096Z,100.00
2023-01-13T15:36:47.327Z,100.00
2023-01-13T15:39:17.197Z,100.00
2023-01-13T15:42:02.963Z,100.00
2023-01-13T15:44:48.427Z,100.00
2023-01-13T15:47:16.844Z,100.00
2023-01-13T15:49:46.510Z,100.00
2023-01-13T15:52:21.515Z,100.00
2023-01-13T16:08:56.630Z,100.00
2023-01-13T16:11:24.739Z,100.00
2023-01-13T16:13:52.806Z,100.00
2023-01-13T16:16:23.245Z,100.00
2023-01-13T16:18:52.101Z,100.00
2023-01-13T16:21:20.679Z,100.00
2023-01-13T16:23:49.719Z,100.00
2023-01-13T16:26:24.487Z,100.00
2023-01-13T16:28:54.135Z,100.00
2023-01-13T16:31:27.329Z,100.00
2023-01-13T16:33:55.760Z,100.00
2023-01-13T16:36:24.161Z,100.00
2023-01-13T16:38:53.902Z,100.00
2023-01-13T16:41:25.169Z,100.00
2023-01-13T16:43:53.962Z,100.00
2023-01-13T16:46:24.977Z,100.00
2023-01-13T16:48:54.529Z,100.00
2023-01-13T16:51:23.675Z,100.00
2023-01-13T16:53:52.184Z,100.00
2023-01-13T16:56:27.406Z,100.00
2023-01-13T16:58:57.096Z,100.00
2023-01-13T17:01:28.266Z,100.00
2023-01-13T17:03:58.021Z,100.00
2023-01-13T17:06:33.651Z,100.00
2023-01-13T17:09:02.815Z,100.00
2023-01-13T17:11:32.570Z,100.00
2023-01-13T17:14:00.866Z,100.00
2023-01-13T17:16:44.021Z,100.00
2023-01-13T17:19:13.199Z,100.00
2023-01-13T17:21:41.414Z,100.00
2023-01-13T17:24:10.789Z,100.00
2023-01-13T17:26:44.124Z,100.00
2023-01-13T17:29:15.523Z,100.00
2023-01-13T17:31:43.851Z,100.00
2023-01-13T17:34:13.384Z,100.00
2023-01-13T17:36:43.473Z,100.00
2023-01-13T17:39:17.488Z,100.00
2023-01-13T17:41:47.676Z,100.00
2023-01-13T17:44:16.317Z,100.00
2023-01-13T17:46:44.877Z,100.00
2023-01-13T17:49:13.562Z,100.00
2023-01-13T17:51:41.666Z,100.00
2023-01-13T17:54:12.307Z,100.00
2023-01-13T17:56:41.244Z,100.00
2023-01-13T17:59:12.665Z,100.00
2023-01-13T18:01:41.262Z,100.00
2023-01-13T18:04:15.014Z,100.00
2023-01-13T18:06:43.499Z,100.00
2023-01-13T18:09:12.022Z,100.00
2023-01-13T18:11:40.311Z,100.00
2023-01-13T18:14:09.580Z,100.00
2023-01-13T18:16:39.899Z,100.00
2023-01-13T18:19:25.376Z,100.00
2023-01-13T18:22:11.282Z,100.00
2023-01-13T18:24:56.750Z,100.00
2023-01-13T18:27:31.221Z,100.00
2023-01-13T18:30:01.452Z,100.00
2023-01-13T18:32:33.668Z,100.00
2023-01-13T18:35:06.755Z,100.00
2023-01-13T18:37:38.710Z,100.00
2023-01-13T18:40:09.429Z,100.00
2023-01-13T18:42:52.009Z,100.00
2023-01-13T18:45:20.804Z,100.00
2023-01-13T18:47:52.986Z,100.00
2023-01-13T18:50:21.843Z,100.00
2023-01-13T18:52:50.066Z,100.00
2023-01-13T18:55:18.766Z,100.00
2023-01-13T18:57:47.193Z,100.00
2023-01-13T19:00:17.971Z,100.00
2023-01-13T19:02:47.339Z,100.00
2023-01-13T19:05:17.515Z,100.00
2023-01-13T19:07:51.036Z,100.00
2023-01-13T19:10:19.798Z,100.00
2023-01-13T19:12:48.029Z,100.00
2023-01-13T19:15:16.422Z,100.00
2023-01-13T19:17:45.178Z,100.00
2023-01-13T19:20:14.111Z,100.00
2023-01-13T19:22:51.421Z,100.00
2023-01-13T19:25:19.686Z,100.00
2023-01-13T19:27:47.898Z,100.00
2023-01-13T19:30:17.497Z,100.00
2023-01-13T19:32:45.876Z,100.00
2023-01-13T19:35:17.709Z,100.00
2023-01-13T19:37:47.520Z,100.00
2023-01-13T19:40:16.035Z,100.00
2023-01-13T19:43:02.797Z,100.00
2023-01-13T19:45:34.188Z,100.00
2023-01-13T19:48:05.335Z,100.00
2023-01-13T19:50:37.829Z,100.00
2023-01-13T19:53:08.219Z,100.00
2023-01-13T19:55:36.733Z,100.00
2023-01-13T19:58:05.500Z,100.00
2023-01-13T20:00:35.013Z,100.00
2023-01-13T20:03:08.073Z,100.00
2023-01-13T20:05:36.374Z,100.00
2023-01-13T20:08:04.858Z,100.00
2023-01-13T20:10:34.457Z,100.00
2023-01-13T20:13:08.296Z,100.00
2023-01-13T20:15:36.718Z,100.00
2023-01-13T20:18:05.208Z,100.00
2023-01-13T20:20:33.453Z,100.00
2023-01-13T20:23:01.606Z,100.00
2023-01-13T20:25:30.925Z,100.00
2023-01-13T20:28:02.289Z,100.00
2023-01-13T20:30:30.533Z,100.00
2023-01-13T20:32:58.911Z,100.00
2023-01-13T20:35:29.688Z,100.00
2023-01-13T20:37:58.462Z,100.00
2023-01-13T20:40:26.581Z,100.00
2023-01-13T20:42:53.902Z,100.00
2023-01-13T20:45:23.511Z,100.00
2023-01-13T20:47:51.833Z,100.00
2023-01-13T20:50:20.220Z,100.00
2023-01-13T20:52:49.408Z,100.00
2023-01-13T20:55:19.315Z,100.00
2023-01-13T20:57:50.355Z,100.00
2023-01-13T21:00:20.158Z,100.00
2023-01-13T21:02:49.828Z,100.00
2023-01-13T21:05:18.414Z,100.00
2023-01-13T21:07:47.040Z,100.00
2023-01-13T21:10:15.435Z,100.00
2023-01-13T21:13:03.041Z,100.00
2023-01-13T21:15:31.411Z,100.00
2023-01-13T21:18:18.169Z,100.00
2023-01-13T21:20:46.422Z,100.00
2023-01-13T21:23:14.732Z,100.00
2023-01-13T21:25:43.423Z,100.00
2023-01-13T21:28:11.928Z,100.00
2023-01-13T21:30:40.751Z,100.00
2023-01-13T21:33:14.243Z,100.00
2023-01-13T21:35:42.813Z,100.00
2023-01-13T21:38:12.437Z,100.00
2023-01-13T21:40:40.798Z,100.00
2023-01-13T21:43:30.249Z,100.00
2023-01-13T21:46:30.641Z,100.00
2023-01-13T21:49:00.356Z,100.00
2023-01-13T21:51:28.984Z,100.00
2023-01-13T21:53:57.769Z,100.00
2023-01-13T21:56:26.478Z,100.00
2023-01-13T21:59:00.255Z,100.00
2023-01-13T22:01:28.658Z,100.00
2023-01-13T22:04:15.434Z,100.00
2023-01-13T22:06:44.978Z,100.00
2023-01-13T22:09:13.395Z,100.00
2023-01-13T22:11:41.545Z,100.00
2023-01-13T22:14:11.139Z,100.00
2023-01-13T22:16:42.528Z,100.00
2023-01-13T22:19:12.328Z,100.00
2023-01-13T22:21:40.720Z,100.00
2023-01-13T22:24:11.609Z,100.00
2023-01-13T22:26:39.792Z,100.00
2023-01-13T22:29:08.029Z,100.00
2023-01-13T22:31:36.356Z,100.00
2023-01-13T22:34:04.715Z,100.00
2023-01-13T22:36:32.880Z,100.00
2023-01-13T22:39:04.814Z,100.00
2023-01-13T22:41:34.559Z,100.00
2023-01-13T22:44:02.741Z,100.00
2023-01-13T22:46:30.926Z,100.00
2023-01-13T22:48:59.184Z,100.00
2023-01-13T22:51:27.694Z,100.00
2023-01-13T22:53:56.040Z,100.00
2023-01-13T22:56:25.667Z,100.00
2023-01-13T22:59:01.722Z,100.00
2023-01-13T23:01:32.393Z,100.00
2023-01-13T23:04:01.163Z,100.00
2023-01-13T23:06:31.645Z,100.00
2023-01-13T23:08:59.984Z,100.00
2023-01-13T23:11:30.875Z,100.00
2023-01-13T23:14:01.626Z,100.00
2023-01-13T23:16:31.719Z,100.00
2023-01-13T23:18:59.990Z,100.00
2023-01-13T23:21:30.613Z,100.00
2023-01-13T23:23:59.297Z,100.00
2023-01-13T23:26:28.510Z,100.00
2023-01-13T23:29:01.535Z,100.00
2023-01-13T23:31:30.063Z,100.00
2023-01-13T23:33:58.802Z,100.00
2023-01-13T23:36:29.066Z,100.00
2023-01-13T23:38:59.213Z,100.00
2023-01-13T23:41:32.077Z,100.00
2023-01-13T23:44:02.092Z,100.00
2023-01-13T23:46:31.438Z,100.00
2023-01-13T23:49:00.098Z,100.00
2023-01-13T23:51:30.074Z,100.00
2023-01-13T23:53:58.878Z,100.00
2023-01-13T23:56:29.834Z,100.00
2023-01-13T23:58:58.684Z,100.00
